createdAt,value
2022-12-18T00:02:27.546Z,20.04
2022-12-18T00:04:55.588Z,20.04
2022-12-18T00:07:25.009Z,20.02
2022-12-18T00:09:56.046Z,20.03
2022-12-18T00:12:24.026Z,20.02
2022-12-18T00:14:51.926Z,20.01
2022-12-18T00:17:19.881Z,20.00
2022-12-18T00:19:47.828Z,19.99
2022-12-18T00:22:15.823Z,19.96
2022-12-18T00:24:45.107Z,19.89
2022-12-18T00:27:15.857Z,19.92
2022-12-18T00:29:43.824Z,19.93
2022-12-18T00:32:14.022Z,19.92
2022-12-18T00:34:41.984Z,19.88
2022-12-18T00:37:09.949Z,19.87
2022-12-18T00:39:37.918Z,19.86
2022-12-18T00:42:24.715Z,19.85
2022-12-18T00:44:52.757Z,19.84
2022-12-18T00:47:20.763Z,19.83
2022-12-18T00:49:48.690Z,19.81
2022-12-18T00:52:16.747Z,19.81
2022-12-18T00:54:44.743Z,19.79
2022-12-18T00:57:14.063Z,19.78
2022-12-18T00:59:42.298Z,19.78
2022-12-18T01:02:10.415Z,19.77
2022-12-18T01:04:38.715Z,19.74
2022-12-18T01:07:06.765Z,19.75
2022-12-18T01:09:37.243Z,19.74
2022-12-18T01:12:05.700Z,19.72
2022-12-18T01:14:35.046Z,19.72
2022-12-18T01:17:03.776Z,19.70
2022-12-18T01:19:32.229Z,19.69
2022-12-18T01:22:02.745Z,19.68
2022-12-18T01:24:30.757Z,19.66
2022-12-18T01:27:01.049Z,19.66
2022-12-18T01:29:29.075Z,19.64
2022-12-18T01:31:58.653Z,19.62
2022-12-18T01:34:29.916Z,19.63
2022-12-18T01:36:59.020Z,19.62
2022-12-18T01:39:27.716Z,19.59
2022-12-18T01:42:04.712Z,19.58
2022-12-18T01:44:58.143Z,19.57
2022-12-18T01:47:31.239Z,19.56
2022-12-18T01:50:01.529Z,19.57
2022-12-18T01:52:32.953Z,19.56
2022-12-18T01:55:01.898Z,19.55
2022-12-18T01:57:30.648Z,19.53
2022-12-18T02:00:02.960Z,19.53
2022-12-18T02:02:32.980Z,19.53
2022-12-18T02:05:05.203Z,19.53
2022-12-18T02:07:42.482Z,19.51
2022-12-18T02:10:21.925Z,19.50
2022-12-18T02:12:54.771Z,19.49
2022-12-18T02:15:33.807Z,19.48
2022-12-18T02:18:09.892Z,19.47
2022-12-18T02:20:42.482Z,19.45
2022-12-18T02:23:18.417Z,19.45
2022-12-18T02:26:06.971Z,19.45
2022-12-18T02:28:38.814Z,19.42
2022-12-18T02:31:15.081Z,19.42
2022-12-18T02:33:46.203Z,19.42
2022-12-18T02:36:16.847Z,19.39
2022-12-18T02:38:46.698Z,19.38
2022-12-18T02:41:17.987Z,19.37
2022-12-18T02:43:55.913Z,19.38
2022-12-18T02:46:35.063Z,19.36
2022-12-18T02:49:14.664Z,19.35
2022-12-18T02:51:52.648Z,19.34
2022-12-18T02:54:29.972Z,19.34
2022-12-18T02:57:07.428Z,19.33
2022-12-18T02:59:43.336Z,19.31
2022-12-18T03:02:21.586Z,19.30
2022-12-18T03:04:56.509Z,19.31
2022-12-18T03:07:36.148Z,19.29
2022-12-18T03:10:04.613Z,19.29
2022-12-18T03:12:37.794Z,19.29
2022-12-18T03:15:17.616Z,19.28
2022-12-18T03:17:51.850Z,19.28
2022-12-18T03:20:23.846Z,19.29
2022-12-18T03:22:55.924Z,19.27
2022-12-18T03:25:27.719Z,19.27
2022-12-18T03:28:00.781Z,19.25
2022-12-18T03:30:31.716Z,19.25
2022-12-18T03:33:08.047Z,19.24
2022-12-18T03:35:42.615Z,19.25
2022-12-18T03:38:11.414Z,19.27
2022-12-18T03:40:50.270Z,19.26
2022-12-18T03:43:27.728Z,19.28
2022-12-18T03:46:04.350Z,19.26
2022-12-18T03:48:38.902Z,19.27
2022-12-18T03:51:12.234Z,19.25
2022-12-18T03:53:49.156Z,19.25
2022-12-18T03:56:18.850Z,19.25
2022-12-18T03:58:50.091Z,19.30
2022-12-18T04:01:20.867Z,19.31
2022-12-18T04:03:51.253Z,19.32
2022-12-18T04:06:20.525Z,19.30
2022-12-18T04:08:49.521Z,19.28
2022-12-18T04:11:17.738Z,19.30
2022-12-18T04:13:45.769Z,19.26
2022-12-18T04:16:15.118Z,19.26
2022-12-18T04:18:43.325Z,19.26
2022-12-18T04:21:12.351Z,19.24
2022-12-18T04:23:40.709Z,19.24
2022-12-18T04:26:09.028Z,19.23
2022-12-18T04:28:37.065Z,19.24
2022-12-18T04:31:05.287Z,19.23
2022-12-18T04:33:34.720Z,19.23
2022-12-18T04:36:02.722Z,19.24
2022-12-18T04:38:30.660Z,19.22
2022-12-18T04:40:58.615Z,19.22
2022-12-18T04:43:26.599Z,19.23
2022-12-18T04:45:54.694Z,19.23
2022-12-18T04:48:22.993Z,19.23
2022-12-18T04:50:52.697Z,19.22
2022-12-18T04:53:20.625Z,19.22
2022-12-18T04:55:48.629Z,19.23
2022-12-18T04:58:16.999Z,19.25
2022-12-18T05:00:45.569Z,19.24
2022-12-18T05:03:13.632Z,19.24
2022-12-18T05:05:41.664Z,19.24
2022-12-18T05:08:10.937Z,19.23
2022-12-18T05:10:38.925Z,19.24
2022-12-18T05:13:06.866Z,19.25
2022-12-18T05:15:37.199Z,19.25
2022-12-18T05:18:06.249Z,19.24
2022-12-18T05:20:34.185Z,19.24
2022-12-18T05:23:02.109Z,19.25
2022-12-18T05:25:31.426Z,19.24
2022-12-18T05:27:59.508Z,19.23
2022-12-18T05:30:28.558Z,19.23
2022-12-18T05:32:56.634Z,19.23
2022-12-18T05:35:24.678Z,19.24
2022-12-18T05:37:52.624Z,19.23
2022-12-18T05:40:20.696Z,19.23
2022-12-18T05:42:49.996Z,19.24
2022-12-18T05:45:18.068Z,19.24
2022-12-18T05:47:46.050Z,19.25
2022-12-18T05:50:14.045Z,19.25
2022-12-18T05:52:41.972Z,19.26
2022-12-18T05:55:10.175Z,19.24
2022-12-18T05:57:38.106Z,19.25
2022-12-18T06:00:08.939Z,19.25
2022-12-18T06:02:37.143Z,19.25
2022-12-18T06:05:05.585Z,19.25
2022-12-18T06:07:33.548Z,19.15
2022-12-18T06:10:01.636Z,19.27
2022-12-18T06:12:29.628Z,19.28
2022-12-18T06:14:57.567Z,19.27
2022-12-18T06:17:29.923Z,19.27
2022-12-18T06:19:57.916Z,19.28
2022-12-18T06:22:25.917Z,19.28
2022-12-18T06:24:53.979Z,19.28
2022-12-18T06:27:22.536Z,19.29
2022-12-18T06:29:50.511Z,19.28
2022-12-18T06:32:18.637Z,19.29
2022-12-18T06:34:48.145Z,19.31
2022-12-18T06:37:16.133Z,19.31
2022-12-18T06:39:44.023Z,19.31
2022-12-18T06:42:11.968Z,19.31
2022-12-18T06:44:40.035Z,19.31
2022-12-18T06:47:08.032Z,19.31
2022-12-18T06:49:36.229Z,19.30
2022-12-18T06:52:05.797Z,19.31
2022-12-18T06:54:33.755Z,19.32
2022-12-18T06:57:01.751Z,19.34
2022-12-18T06:59:29.685Z,19.34
2022-12-18T07:01:57.720Z,19.36
2022-12-18T07:04:30.201Z,19.34
2022-12-18T07:06:58.270Z,19.35
2022-12-18T07:09:30.700Z,19.36
2022-12-18T07:11:58.742Z,19.37
2022-12-18T07:14:30.113Z,19.38
2022-12-18T07:16:58.164Z,19.38
2022-12-18T07:19:26.407Z,19.38
2022-12-18T07:21:54.356Z,19.38
2022-12-18T07:24:22.397Z,19.40
2022-12-18T07:26:51.708Z,19.40
2022-12-18T07:29:19.685Z,19.40
2022-12-18T07:31:48.073Z,19.42
2022-12-18T07:34:17.172Z,19.43
2022-12-18T07:36:45.133Z,19.43
2022-12-18T07:39:13.694Z,19.44
2022-12-18T07:41:46.745Z,19.44
2022-12-18T07:44:16.327Z,19.44
2022-12-18T07:46:46.397Z,19.45
2022-12-18T07:49:14.361Z,19.45
2022-12-18T07:51:42.521Z,19.46
2022-12-18T07:54:10.545Z,19.48
2022-12-18T07:56:38.488Z,19.49
2022-12-18T07:59:06.411Z,19.48
2022-12-18T08:01:36.018Z,19.49
2022-12-18T08:04:04.065Z,19.50
2022-12-18T08:06:32.085Z,19.50
2022-12-18T08:09:00.090Z,19.51
2022-12-18T08:11:29.740Z,19.52
2022-12-18T08:13:58.026Z,19.51
2022-12-18T08:16:28.420Z,19.53
2022-12-18T08:18:57.901Z,19.53
2022-12-18T08:21:28.151Z,19.55
2022-12-18T08:23:57.682Z,18.77
2022-12-18T08:26:27.267Z,18.90
2022-12-18T08:28:56.979Z,18.98
2022-12-18T08:31:25.950Z,19.08
2022-12-18T08:33:55.329Z,19.19
2022-12-18T08:36:26.062Z,19.27
2022-12-18T08:38:55.196Z,19.33
2022-12-18T08:41:23.474Z,19.40
2022-12-18T08:44:09.310Z,18.81
2022-12-18T08:46:40.045Z,18.61
2022-12-18T08:49:09.605Z,18.73
2022-12-18T08:51:39.640Z,18.83
2022-12-18T08:54:08.509Z,18.94
2022-12-18T08:56:36.530Z,18.88
2022-12-18T08:59:07.068Z,18.93
2022-12-18T09:01:35.707Z,19.01
2022-12-18T09:04:03.980Z,19.08
2022-12-18T09:06:33.332Z,19.16
2022-12-18T09:09:02.896Z,19.25
2022-12-18T09:11:34.453Z,19.30
2022-12-18T09:14:03.554Z,19.37
2022-12-18T09:16:35.961Z,19.40
2022-12-18T09:19:06.599Z,19.44
2022-12-18T09:21:42.116Z,19.48
2022-12-18T09:24:16.164Z,19.50
2022-12-18T09:26:44.874Z,19.54
2022-12-18T09:29:16.397Z,19.55
2022-12-18T09:31:47.475Z,19.58
2022-12-18T09:34:15.479Z,19.61
2022-12-18T09:36:43.557Z,19.63
2022-12-18T09:39:11.773Z,19.65
2022-12-18T09:41:48.309Z,19.66
2022-12-18T09:44:22.119Z,19.68
2022-12-18T09:47:02.049Z,19.71
2022-12-18T09:49:34.013Z,19.73
2022-12-18T09:52:06.156Z,19.75
2022-12-18T09:54:38.477Z,19.76
2022-12-18T09:57:07.890Z,19.78
2022-12-18T09:59:41.315Z,19.79
2022-12-18T10:02:18.400Z,19.79
2022-12-18T10:04:52.481Z,19.81
2022-12-18T10:07:27.106Z,19.81
2022-12-18T10:10:05.060Z,19.84
2022-12-18T10:12:43.428Z,19.85
2022-12-18T10:15:20.113Z,19.87
2022-12-18T10:17:56.151Z,19.89
2022-12-18T10:20:31.916Z,19.90
2022-12-18T10:23:06.219Z,19.90
2022-12-18T10:25:40.852Z,19.92
2022-12-18T10:28:15.272Z,19.94
2022-12-18T10:30:45.100Z,19.95
2022-12-18T10:33:15.819Z,19.96
2022-12-18T10:35:44.607Z,19.95
2022-12-18T10:38:25.357Z,19.97
2022-12-18T10:40:56.402Z,19.98
2022-12-18T10:43:27.976Z,19.99
2022-12-18T10:46:16.949Z,19.99
2022-12-18T10:48:55.033Z,20.00
2022-12-18T10:51:27.023Z,20.00
2022-12-18T10:53:58.193Z,20.00
2022-12-18T10:56:28.120Z,20.01
2022-12-18T10:59:03.231Z,20.02
2022-12-18T11:01:48.592Z,20.03
2022-12-18T11:04:20.801Z,20.03
2022-12-18T11:07:03.931Z,20.03
2022-12-18T11:09:34.657Z,20.03
2022-12-18T11:12:05.122Z,19.79
2022-12-18T11:14:36.077Z,19.89
2022-12-18T11:19:56.420Z,19.96
2022-12-18T11:22:28.854Z,19.99
2022-12-18T11:27:54.630Z,20.03
2022-12-18T11:30:29.512Z,20.06
2022-12-18T11:33:07.415Z,20.07
2022-12-18T11:35:44.265Z,20.11
2022-12-18T11:38:24.323Z,20.13
2022-12-18T11:40:58.249Z,20.14
2022-12-18T11:43:30.963Z,20.15
2022-12-18T11:46:05.849Z,20.16
2022-12-18T11:48:39.434Z,20.18
2022-12-18T11:51:15.679Z,20.20
2022-12-18T11:53:43.691Z,20.19
2022-12-18T11:56:28.571Z,20.21
2022-12-18T11:59:10.874Z,20.22
2022-12-18T12:01:51.174Z,20.22
2022-12-18T12:04:43.077Z,20.22
2022-12-18T12:07:33.479Z,20.22
2022-12-18T12:10:12.591Z,20.23
2022-12-18T12:12:57.260Z,20.23
2022-12-18T12:15:42.278Z,20.23
2022-12-18T12:18:28.047Z,20.23
2022-12-18T12:21:05.191Z,20.22
2022-12-18T12:23:43.505Z,20.24
2022-12-18T12:26:14.257Z,20.22
2022-12-18T12:28:54.662Z,20.23
2022-12-18T12:31:36.126Z,20.22
2022-12-18T12:34:15.266Z,20.22
2022-12-18T12:36:55.127Z,20.22
2022-12-18T12:39:26.817Z,20.22
2022-12-18T12:42:08.912Z,20.21
2022-12-18T12:44:45.604Z,20.21
2022-12-18T12:47:21.681Z,20.21
2022-12-18T12:49:51.949Z,20.21
2022-12-18T12:52:29.826Z,20.21
2022-12-18T12:54:59.583Z,20.21
2022-12-18T12:57:35.232Z,20.22
2022-12-18T13:00:11.223Z,20.20
2022-12-18T13:02:49.231Z,20.20
2022-12-18T13:05:28.172Z,20.20
2022-12-18T13:08:01.402Z,20.20
2022-12-18T13:10:36.293Z,20.19
2022-12-18T13:13:07.083Z,20.19
2022-12-18T13:15:41.181Z,20.18
2022-12-18T13:18:19.494Z,20.20
2022-12-18T13:20:55.379Z,20.19
2022-12-18T13:23:37.448Z,20.17
2022-12-18T13:26:35.170Z,20.17
2022-12-18T13:29:05.294Z,20.17
2022-12-18T13:32:10.202Z,20.16
2022-12-18T13:34:38.528Z,20.16
2022-12-18T13:37:52.986Z,20.15
2022-12-18T13:41:00.547Z,20.15
2022-12-18T13:43:36.658Z,20.14
2022-12-18T13:46:18.587Z,20.14
2022-12-18T13:48:54.780Z,19.55
2022-12-18T13:51:23.844Z,19.56
2022-12-18T13:53:56.258Z,19.63
2022-12-18T13:56:29.339Z,19.71
2022-12-18T13:59:17.859Z,19.75
2022-12-18T14:01:49.855Z,19.78
2022-12-18T14:04:23.369Z,19.82
2022-12-18T14:06:54.762Z,19.89
2022-12-18T14:09:32.278Z,19.93
2022-12-18T14:12:19.576Z,19.97
2022-12-18T14:14:49.731Z,19.99
2022-12-18T14:17:21.597Z,20.02
2022-12-18T14:19:52.499Z,20.03
2022-12-18T14:22:23.072Z,20.04
2022-12-18T14:25:10.782Z,20.06
2022-12-18T14:27:40.173Z,20.07
2022-12-18T14:30:26.603Z,20.06
2022-12-18T14:33:03.071Z,20.08
2022-12-18T14:35:31.109Z,20.08
2022-12-18T14:38:13.216Z,20.08
2022-12-18T14:40:42.621Z,20.11
2022-12-18T14:43:12.499Z,20.11
2022-12-18T14:45:43.681Z,20.12
2022-12-18T14:48:23.388Z,20.13
2022-12-18T14:51:03.781Z,20.13
2022-12-18T14:53:39.207Z,20.13
2022-12-18T14:56:18.150Z,20.14
2022-12-18T14:58:50.503Z,20.16
2022-12-18T15:01:25.240Z,20.16
2022-12-18T15:03:54.685Z,20.17
2022-12-18T15:06:32.666Z,20.20
2022-12-18T15:09:02.431Z,20.24
2022-12-18T15:11:36.892Z,20.28
2022-12-18T15:14:37.117Z,20.35
2022-12-18T15:17:08.508Z,20.37
2022-12-18T15:19:40.802Z,20.40
2022-12-18T15:22:19.634Z,20.43
2022-12-18T15:24:48.584Z,20.46
2022-12-18T15:27:26.508Z,20.45
2022-12-18T15:30:22.774Z,20.46
2022-12-18T15:32:52.697Z,20.45
2022-12-18T15:35:23.161Z,20.45
2022-12-18T15:37:52.317Z,20.46
2022-12-18T15:40:22.878Z,20.45
2022-12-18T15:43:13.480Z,20.46
2022-12-18T15:45:41.566Z,20.47
2022-12-18T15:48:22.597Z,20.46
2022-12-18T15:50:52.020Z,20.46
2022-12-18T15:53:20.650Z,20.46
2022-12-18T15:56:08.512Z,20.46
2022-12-18T15:58:37.880Z,20.43
2022-12-18T16:01:06.178Z,20.42
2022-12-18T16:03:34.270Z,20.40
2022-12-18T16:06:04.135Z,20.42
2022-12-18T16:08:35.008Z,20.43
2022-12-18T16:11:05.529Z,20.43
2022-12-18T16:13:33.748Z,20.43
2022-12-18T16:16:03.172Z,20.43
2022-12-18T16:18:31.189Z,20.44
2022-12-18T16:21:00.282Z,20.46
2022-12-18T16:23:28.369Z,20.44
2022-12-18T16:25:56.381Z,20.43
2022-12-18T16:28:24.394Z,20.43
2022-12-18T16:30:52.431Z,20.44
2022-12-18T16:33:21.809Z,20.45
2022-12-18T16:35:54.274Z,20.45
2022-12-18T16:38:22.304Z,20.44
2022-12-18T16:41:04.160Z,20.43
2022-12-18T16:43:32.118Z,20.44
2022-12-18T16:46:01.173Z,20.44
2022-12-18T16:48:30.845Z,20.44
2022-12-18T16:51:03.507Z,20.44
2022-12-18T16:53:31.826Z,20.44
2022-12-18T16:56:01.136Z,20.44
2022-12-18T16:58:29.125Z,20.44
2022-12-18T17:00:57.077Z,20.45
2022-12-18T17:03:25.129Z,20.45
2022-12-18T17:05:54.591Z,20.46
2022-12-18T17:08:22.602Z,20.47
2022-12-18T17:10:50.556Z,20.47
2022-12-18T17:13:22.700Z,20.49
2022-12-18T17:15:53.972Z,20.46
2022-12-18T17:18:22.534Z,20.48
2022-12-18T17:20:50.506Z,20.47
2022-12-18T17:23:19.816Z,20.47
2022-12-18T17:25:47.752Z,20.47
2022-12-18T17:28:15.700Z,20.46
2022-12-18T17:30:43.721Z,20.47
2022-12-18T17:33:13.692Z,20.48
2022-12-18T17:35:42.244Z,20.46
2022-12-18T17:38:10.326Z,20.45
2022-12-18T17:40:45.896Z,20.48
2022-12-18T17:43:14.407Z,20.47
2022-12-18T17:45:42.441Z,20.48
2022-12-18T17:48:10.998Z,20.50
2022-12-18T17:50:39.433Z,20.51
2022-12-18T17:53:07.416Z,20.50
2022-12-18T17:55:35.410Z,20.50
2022-12-18T17:58:04.770Z,20.50
2022-12-18T18:00:32.702Z,20.47
2022-12-18T18:03:00.787Z,20.48
2022-12-18T18:05:28.919Z,20.49
2022-12-18T18:07:57.223Z,20.49
2022-12-18T18:10:26.298Z,20.49
2022-12-18T18:13:11.847Z,20.48
2022-12-18T18:15:45.000Z,20.49
2022-12-18T18:18:13.308Z,20.48
2022-12-18T18:20:46.127Z,20.48
2022-12-18T18:23:14.223Z,20.48
2022-12-18T18:25:42.435Z,20.48
2022-12-18T18:28:10.452Z,20.48
2022-12-18T18:30:38.785Z,20.49
2022-12-18T18:33:12.065Z,20.49
2022-12-18T18:35:58.886Z,20.49
2022-12-18T18:38:26.865Z,20.49
2022-12-18T18:40:59.673Z,20.49
2022-12-18T18:43:27.804Z,20.49
2022-12-18T18:45:57.213Z,20.49
2022-12-18T18:48:27.062Z,20.49
2022-12-18T18:50:58.457Z,20.49
2022-12-18T18:53:26.748Z,20.50
2022-12-18T18:56:24.902Z,20.29
2022-12-18T18:58:42.784Z,20.32
2022-12-18T19:01:13.858Z,20.24
2022-12-18T19:03:43.727Z,20.28
2022-12-18T19:06:15.435Z,20.31
2022-12-18T19:08:43.811Z,20.35
2022-12-18T19:11:26.639Z,20.39
2022-12-18T19:13:55.347Z,20.41
2022-12-18T19:16:25.912Z,20.44
2022-12-18T19:19:01.403Z,20.44
2022-12-18T19:21:34.062Z,20.46
2022-12-18T19:24:03.500Z,20.48
2022-12-18T19:26:31.466Z,20.49
2022-12-18T19:29:02.468Z,20.50
2022-12-18T19:31:36.127Z,20.52
2022-12-18T19:34:07.673Z,20.53
2022-12-18T19:36:37.075Z,20.53
2022-12-18T19:39:11.840Z,20.54
2022-12-18T19:41:40.103Z,20.54
2022-12-18T19:44:08.791Z,20.54
2022-12-18T19:46:39.473Z,20.53
2022-12-18T19:49:11.844Z,20.53
2022-12-18T19:51:59.758Z,20.55
2022-12-18T19:54:30.996Z,20.53
2022-12-18T19:56:59.022Z,20.57
2022-12-18T19:59:27.231Z,20.57
2022-12-18T20:01:55.311Z,20.57
2022-12-18T20:04:24.898Z,20.58
2022-12-18T20:06:56.014Z,20.58
2022-12-18T20:09:24.057Z,20.60
2022-12-18T20:11:53.160Z,20.60
2022-12-18T20:14:22.703Z,20.61
2022-12-18T20:16:51.901Z,20.61
2022-12-18T20:19:20.447Z,20.61
2022-12-18T20:21:50.063Z,20.62
2022-12-18T20:24:20.621Z,20.61
2022-12-18T20:26:48.635Z,20.63
2022-12-18T20:29:16.594Z,20.63
2022-12-18T20:31:44.605Z,20.64
2022-12-18T20:34:12.617Z,20.64
2022-12-18T20:36:41.153Z,20.65
2022-12-18T20:39:12.273Z,20.66
2022-12-18T20:41:41.361Z,20.65
2022-12-18T20:44:21.491Z,20.66
2022-12-18T20:46:53.666Z,20.66
2022-12-18T20:49:21.966Z,20.67
2022-12-18T20:51:52.239Z,20.65
2022-12-18T20:54:21.965Z,20.67
2022-12-18T20:56:50.060Z,20.68
2022-12-18T20:59:19.398Z,20.68
2022-12-18T21:01:48.350Z,20.69
2022-12-18T21:04:18.398Z,20.70
2022-12-18T21:06:51.326Z,20.71
2022-12-18T21:09:21.748Z,20.69
2022-12-18T21:12:07.379Z,20.70
2022-12-18T21:14:36.021Z,20.71
2022-12-18T21:17:04.456Z,20.71
2022-12-18T21:19:32.409Z,20.72
2022-12-18T21:22:00.833Z,20.73
2022-12-18T21:24:32.799Z,20.72
2022-12-18T21:27:01.897Z,20.72
2022-12-18T21:29:29.984Z,20.73
2022-12-18T21:31:58.378Z,20.74
2022-12-18T21:34:28.317Z,20.74
2022-12-18T21:36:58.356Z,20.74
2022-12-18T21:39:27.235Z,20.75
2022-12-18T21:42:15.162Z,20.74
2022-12-18T21:44:43.873Z,20.74
2022-12-18T21:47:22.002Z,20.74
2022-12-18T21:49:51.765Z,20.75
2022-12-18T21:52:19.837Z,20.76
2022-12-18T21:54:49.510Z,20.73
2022-12-18T21:57:19.238Z,20.75
2022-12-18T21:59:47.163Z,20.75
2022-12-18T22:02:17.569Z,20.76
2022-12-18T22:04:46.959Z,20.78
2022-12-18T22:07:16.224Z,20.78
2022-12-18T22:09:44.318Z,20.80
2022-12-18T22:12:34.371Z,20.79
2022-12-18T22:15:05.005Z,20.80
2022-12-18T22:17:33.437Z,20.80
2022-12-18T22:20:01.657Z,20.79
2022-12-18T22:22:29.607Z,20.78
2022-12-18T22:24:57.571Z,20.77
2022-12-18T22:27:25.500Z,20.78
2022-12-18T22:30:04.532Z,20.77
2022-12-18T22:32:35.067Z,20.78
2022-12-18T22:35:09.232Z,20.78
2022-12-18T22:37:40.859Z,20.76
2022-12-18T22:40:19.309Z,20.72
2022-12-18T22:42:51.629Z,20.71
2022-12-18T22:45:20.703Z,20.71
2022-12-18T22:47:50.065Z,20.72
2022-12-18T22:50:18.139Z,20.73
2022-12-18T22:52:46.112Z,20.71
2022-12-18T22:55:14.045Z,20.72
2022-12-18T22:57:47.949Z,20.65
2022-12-18T23:00:17.884Z,20.63
2022-12-18T23:02:59.717Z,20.63
2022-12-18T23:05:29.998Z,20.64
2022-12-18T23:07:58.057Z,20.64
2022-12-18T23:10:26.172Z,20.64
2022-12-18T23:12:54.219Z,20.63
2022-12-18T23:15:23.523Z,20.62
2022-12-18T23:17:58.861Z,20.64
2022-12-18T23:20:27.206Z,20.63
2022-12-18T23:22:55.265Z,20.62
2022-12-18T23:25:23.454Z,20.62
2022-12-18T23:27:54.030Z,20.61
2022-12-18T23:30:21.980Z,20.60
2022-12-18T23:32:50.031Z,20.60
2022-12-18T23:35:19.637Z,20.60
2022-12-18T23:38:04.671Z,20.58
2022-12-18T23:40:32.761Z,20.58
2022-12-18T23:43:01.136Z,20.58
2022-12-18T23:45:31.384Z,20.57
2022-12-18T23:47:59.324Z,20.55
2022-12-18T23:50:29.714Z,20.54
2022-12-18T23:53:05.162Z,20.56
2022-12-18T23:55:35.702Z,20.55
2022-12-18T23:58:03.980Z,20.54
